sensor_id;sensor_type;location;lat;lon;timestamp;P1;durP1;ratioP1;P2;durP2;ratioP2
68025;SDS011;54819;48.030;14.710;2022-11-14T00:02:37;65.00;;;18.70;;
68025;SDS011;54819;48.030;14.710;2022-11-14T00:05:23;51.50;;;18.50;;
68025;SDS011;54819;48.030;14.710;2022-11-14T00:08:26;51.60;;;19.10;;
68025;SDS011;54819;48.030;14.710;2022-11-14T00:11:13;52.00;;;18.10;;
68025;SDS011;54819;48.030;14.710;2022-11-14T00:13:58;48.10;;;16.30;;
68025;SDS011;54819;48.030;14.710;2022-11-14T00:16:44;55.80;;;17.60;;
68025;SDS011;54819;48.030;14.710;2022-11-14T00:19:30;52.80;;;17.40;;
68025;SDS011;54819;48.030;14.710;2022-11-14T00:22:15;49.30;;;17.00;;
68025;SDS011;54819;48.030;14.710;2022-11-14T00:25:02;49.10;;;16.80;;
68025;SDS011;54819;48.030;14.710;2022-11-14T00:27:48;52.50;;;16.40;;
68025;SDS011;54819;48.030;14.710;2022-11-14T00:30:34;51.50;;;16.50;;
68025;SDS011;54819;48.030;14.710;2022-11-14T00:33:20;47.70;;;16.60;;
68025;SDS011;54819;48.030;14.710;2022-11-14T00:36:05;48.00;;;17.10;;
68025;SDS011;54819;48.030;14.710;2022-11-14T00:38:52;55.80;;;17.20;;
68025;SDS011;54819;48.030;14.710;2022-11-14T00:41:41;56.70;;;20.80;;
68025;SDS011;54819;48.030;14.710;2022-11-14T00:44:27;64.80;;;19.20;;
68025;SDS011;54819;48.030;14.710;2022-11-14T00:47:12;59.10;;;20.90;;
68025;SDS011;54819;48.030;14.710;2022-11-14T00:49:58;53.10;;;17.50;;
68025;SDS011;54819;48.030;14.710;2022-11-14T00:52:43;59.30;;;18.80;;
68025;SDS011;54819;48.030;14.710;2022-11-14T00:55:29;52.30;;;16.50;;
68025;SDS011;54819;48.030;14.710;2022-11-14T00:58:15;54.00;;;16.80;;
68025;SDS011;54819;48.030;14.710;2022-11-14T01:01:00;64.80;;;18.60;;
68025;SDS011;54819;48.030;14.710;2022-11-14T01:03:50;75.00;;;21.90;;
68025;SDS011;54819;48.030;14.710;2022-11-14T01:06:36;175.80;;;33.50;;
68025;SDS011;54819;48.030;14.710;2022-11-14T01:09:21;139.40;;;28.40;;
68025;SDS011;54819;48.030;14.710;2022-11-14T01:12:07;78.90;;;23.20;;
68025;SDS011;54819;48.030;14.710;2022-11-14T01:14:53;78.00;;;21.30;;
68025;SDS011;54819;48.030;14.710;2022-11-14T01:17:39;73.30;;;20.80;;
68025;SDS011;54819;48.030;14.710;2022-11-14T01:20:24;67.10;;;19.90;;
68025;SDS011;54819;48.030;14.710;2022-11-14T01:23:11;59.40;;;17.80;;
68025;SDS011;54819;48.030;14.710;2022-11-14T01:26:03;60.30;;;18.70;;
68025;SDS011;54819;48.030;14.710;2022-11-14T01:28:53;60.00;;;21.60;;
68025;SDS011;54819;48.030;14.710;2022-11-14T01:31:38;51.40;;;18.10;;
68025;SDS011;54819;48.030;14.710;2022-11-14T01:34:24;49.10;;;15.70;;
68025;SDS011;54819;48.030;14.710;2022-11-14T01:37:10;123.00;;;30.00;;
68025;SDS011;54819;48.030;14.710;2022-11-14T01:39:56;105.10;;;27.30;;
68025;SDS011;54819;48.030;14.710;2022-11-14T01:42:41;88.70;;;25.50;;
68025;SDS011;54819;48.030;14.710;2022-11-14T01:49:02;69.30;;;19.70;;
68025;SDS011;54819;48.030;14.710;2022-11-14T01:54:46;61.50;;;19.00;;
68025;SDS011;54819;48.030;14.710;2022-11-14T01:57:40;63.50;;;19.40;;
68025;SDS011;54819;48.030;14.710;2022-11-14T02:00:30;63.30;;;21.40;;
68025;SDS011;54819;48.030;14.710;2022-11-14T02:03:17;56.10;;;20.20;;
68025;SDS011;54819;48.030;14.710;2022-11-14T02:06:05;60.80;;;16.90;;
68025;SDS011;54819;48.030;14.710;2022-11-14T02:08:53;67.70;;;21.10;;
68025;SDS011;54819;48.030;14.710;2022-11-14T02:11:43;57.80;;;18.90;;
68025;SDS011;54819;48.030;14.710;2022-11-14T02:14:30;64.20;;;20.20;;
68025;SDS011;54819;48.030;14.710;2022-11-14T02:17:18;62.90;;;19.50;;
68025;SDS011;54819;48.030;14.710;2022-11-14T02:20:19;57.70;;;20.20;;
68025;SDS011;54819;48.030;14.710;2022-11-14T02:23:06;59.80;;;18.50;;
68025;SDS011;54819;48.030;14.710;2022-11-14T02:25:51;67.50;;;17.90;;
68025;SDS011;54819;48.030;14.710;2022-11-14T02:28:37;52.60;;;16.90;;
68025;SDS011;54819;48.030;14.710;2022-11-14T02:31:22;64.30;;;19.10;;
68025;SDS011;54819;48.030;14.710;2022-11-14T02:34:08;55.10;;;16.30;;
68025;SDS011;54819;48.030;14.710;2022-11-14T02:36:54;60.20;;;17.10;;
68025;SDS011;54819;48.030;14.710;2022-11-14T02:39:40;47.80;;;15.30;;
68025;SDS011;54819;48.030;14.710;2022-11-14T02:42:25;42.80;;;14.00;;
68025;SDS011;54819;48.030;14.710;2022-11-14T02:45:11;53.40;;;18.30;;
68025;SDS011;54819;48.030;14.710;2022-11-14T02:47:57;50.20;;;17.20;;
68025;SDS011;54819;48.030;14.710;2022-11-14T02:50:43;52.60;;;16.70;;
68025;SDS011;54819;48.030;14.710;2022-11-14T02:53:29;50.50;;;16.60;;
68025;SDS011;54819;48.030;14.710;2022-11-14T02:56:14;61.10;;;19.10;;
68025;SDS011;54819;48.030;14.710;2022-11-14T02:59:00;54.20;;;17.50;;
68025;SDS011;54819;48.030;14.710;2022-11-14T03:01:46;54.90;;;16.70;;
68025;SDS011;54819;48.030;14.710;2022-11-14T03:04:32;54.60;;;16.30;;
68025;SDS011;54819;48.030;14.710;2022-11-14T03:07:17;60.70;;;18.90;;
68025;SDS011;54819;48.030;14.710;2022-11-14T03:10:04;52.00;;;17.30;;
68025;SDS011;54819;48.030;14.710;2022-11-14T03:12:54;65.10;;;18.90;;
68025;SDS011;54819;48.030;14.710;2022-11-14T03:15:40;56.60;;;17.40;;
68025;SDS011;54819;48.030;14.710;2022-11-14T03:18:25;70.00;;;20.90;;
68025;SDS011;54819;48.030;14.710;2022-11-14T03:21:14;60.70;;;19.60;;
68025;SDS011;54819;48.030;14.710;2022-11-14T03:24:02;59.80;;;20.40;;
68025;SDS011;54819;48.030;14.710;2022-11-14T03:26:47;66.80;;;21.00;;
68025;SDS011;54819;48.030;14.710;2022-11-14T03:29:33;51.80;;;18.90;;
68025;SDS011;54819;48.030;14.710;2022-11-14T03:32:19;53.80;;;17.20;;
68025;SDS011;54819;48.030;14.710;2022-11-14T03:35:05;54.50;;;18.20;;
68025;SDS011;54819;48.030;14.710;2022-11-14T03:37:51;113.90;;;24.80;;
68025;SDS011;54819;48.030;14.710;2022-11-14T03:40:40;108.00;;;23.20;;
68025;SDS011;54819;48.030;14.710;2022-11-14T03:43:30;82.20;;;19.10;;
68025;SDS011;54819;48.030;14.710;2022-11-14T03:46:17;61.20;;;19.40;;
68025;SDS011;54819;48.030;14.710;2022-11-14T03:49:03;68.70;;;21.20;;
68025;SDS011;54819;48.030;14.710;2022-11-14T03:51:49;61.60;;;18.80;;
68025;SDS011;54819;48.030;14.710;2022-11-14T03:54:35;60.40;;;19.30;;
68025;SDS011;54819;48.030;14.710;2022-11-14T03:57:20;67.40;;;20.80;;
68025;SDS011;54819;48.030;14.710;2022-11-14T04:00:07;59.00;;;19.80;;
68025;SDS011;54819;48.030;14.710;2022-11-14T04:02:54;51.90;;;17.10;;
68025;SDS011;54819;48.030;14.710;2022-11-14T04:05:44;55.50;;;17.20;;
68025;SDS011;54819;48.030;14.710;2022-11-14T04:08:31;56.50;;;18.30;;
68025;SDS011;54819;48.030;14.710;2022-11-14T04:11:18;51.00;;;18.00;;
68025;SDS011;54819;48.030;14.710;2022-11-14T04:14:04;52.30;;;17.60;;
68025;SDS011;54819;48.030;14.710;2022-11-14T04:16:50;55.40;;;16.70;;
68025;SDS011;54819;48.030;14.710;2022-11-14T04:19:36;65.70;;;19.40;;
68025;SDS011;54819;48.030;14.710;2022-11-14T04:22:21;58.10;;;18.90;;
68025;SDS011;54819;48.030;14.710;2022-11-14T04:25:08;70.20;;;21.40;;
68025;SDS011;54819;48.030;14.710;2022-11-14T04:27:54;61.50;;;18.80;;
68025;SDS011;54819;48.030;14.710;2022-11-14T04:30:39;74.40;;;21.00;;
68025;SDS011;54819;48.030;14.710;2022-11-14T04:33:26;64.70;;;18.60;;
68025;SDS011;54819;48.030;14.710;2022-11-14T04:36:12;49.10;;;16.20;;
68025;SDS011;54819;48.030;14.710;2022-11-14T04:38:57;46.60;;;16.70;;
68025;SDS011;54819;48.030;14.710;2022-11-14T04:41:43;44.00;;;16.20;;
68025;SDS011;54819;48.030;14.710;2022-11-14T04:44:29;45.50;;;15.70;;
68025;SDS011;54819;48.030;14.710;2022-11-14T04:47:14;57.20;;;18.50;;
68025;SDS011;54819;48.030;14.710;2022-11-14T04:50:00;100.20;;;25.90;;
68025;SDS011;54819;48.030;14.710;2022-11-14T04:52:46;63.60;;;18.50;;
68025;SDS011;54819;48.030;14.710;2022-11-14T04:55:31;57.40;;;17.80;;
68025;SDS011;54819;48.030;14.710;2022-11-14T04:58:17;53.80;;;17.80;;
68025;SDS011;54819;48.030;14.710;2022-11-14T05:01:08;43.50;;;16.20;;
68025;SDS011;54819;48.030;14.710;2022-11-14T05:03:54;51.10;;;16.50;;
68025;SDS011;54819;48.030;14.710;2022-11-14T05:06:40;81.30;;;21.60;;
68025;SDS011;54819;48.030;14.710;2022-11-14T05:09:27;64.50;;;18.70;;
68025;SDS011;54819;48.030;14.710;2022-11-14T05:12:12;68.80;;;20.80;;
68025;SDS011;54819;48.030;14.710;2022-11-14T05:14:58;66.90;;;20.60;;
68025;SDS011;54819;48.030;14.710;2022-11-14T05:17:43;97.80;;;21.50;;
68025;SDS011;54819;48.030;14.710;2022-11-14T05:20:29;97.00;;;26.00;;
68025;SDS011;54819;48.030;14.710;2022-11-14T05:23:20;77.10;;;23.30;;
68025;SDS011;54819;48.030;14.710;2022-11-14T05:26:09;67.40;;;20.90;;
68025;SDS011;54819;48.030;14.710;2022-11-14T05:28:57;77.60;;;22.80;;
68025;SDS011;54819;48.030;14.710;2022-11-14T05:31:43;80.70;;;21.90;;
68025;SDS011;54819;48.030;14.710;2022-11-14T05:34:28;67.50;;;23.00;;
68025;SDS011;54819;48.030;14.710;2022-11-14T05:37:14;71.10;;;23.20;;
68025;SDS011;54819;48.030;14.710;2022-11-14T05:40:00;67.80;;;21.50;;
68025;SDS011;54819;48.030;14.710;2022-11-14T05:42:46;65.30;;;19.00;;
68025;SDS011;54819;48.030;14.710;2022-11-14T05:45:32;64.80;;;20.20;;
68025;SDS011;54819;48.030;14.710;2022-11-14T05:48:17;58.00;;;19.40;;
68025;SDS011;54819;48.030;14.710;2022-11-14T05:51:04;59.10;;;20.20;;
68025;SDS011;54819;48.030;14.710;2022-11-14T05:53:50;67.20;;;21.70;;
68025;SDS011;54819;48.030;14.710;2022-11-14T05:56:36;70.00;;;21.90;;
68025;SDS011;54819;48.030;14.710;2022-11-14T05:59:22;62.80;;;20.00;;
68025;SDS011;54819;48.030;14.710;2022-11-14T06:02:08;70.00;;;19.70;;
68025;SDS011;54819;48.030;14.710;2022-11-14T06:04:54;69.10;;;22.10;;
68025;SDS011;54819;48.030;14.710;2022-11-14T06:07:39;69.20;;;23.20;;
68025;SDS011;54819;48.030;14.710;2022-11-14T06:10:25;60.70;;;21.00;;
68025;SDS011;54819;48.030;14.710;2022-11-14T06:13:11;61.90;;;20.00;;
68025;SDS011;54819;48.030;14.710;2022-11-14T06:16:02;69.70;;;21.90;;
68025;SDS011;54819;48.030;14.710;2022-11-14T06:18:52;61.30;;;21.30;;
68025;SDS011;54819;48.030;14.710;2022-11-14T06:21:38;55.30;;;19.40;;
68025;SDS011;54819;48.030;14.710;2022-11-14T06:24:24;55.90;;;18.50;;
68025;SDS011;54819;48.030;14.710;2022-11-14T06:27:10;55.00;;;19.20;;
68025;SDS011;54819;48.030;14.710;2022-11-14T06:29:55;61.30;;;21.80;;
68025;SDS011;54819;48.030;14.710;2022-11-14T06:32:41;54.40;;;19.10;;
68025;SDS011;54819;48.030;14.710;2022-11-14T06:35:26;54.00;;;18.80;;
68025;SDS011;54819;48.030;14.710;2022-11-14T06:38:12;60.20;;;19.30;;
68025;SDS011;54819;48.030;14.710;2022-11-14T06:41:17;51.30;;;18.70;;
68025;SDS011;54819;48.030;14.710;2022-11-14T06:44:07;51.30;;;18.10;;
68025;SDS011;54819;48.030;14.710;2022-11-14T06:46:53;53.90;;;20.80;;
68025;SDS011;54819;48.030;14.710;2022-11-14T06:49:39;63.60;;;19.70;;
68025;SDS011;54819;48.030;14.710;2022-11-14T06:52:25;66.90;;;20.40;;
68025;SDS011;54819;48.030;14.710;2022-11-14T06:55:11;68.90;;;23.60;;
68025;SDS011;54819;48.030;14.710;2022-11-14T06:57:57;63.90;;;22.10;;
68025;SDS011;54819;48.030;14.710;2022-11-14T07:00:42;62.30;;;20.90;;
68025;SDS011;54819;48.030;14.710;2022-11-14T07:03:28;51.30;;;17.10;;
68025;SDS011;54819;48.030;14.710;2022-11-14T07:06:21;59.60;;;19.80;;
68025;SDS011;54819;48.030;14.710;2022-11-14T07:09:10;60.20;;;18.30;;
68025;SDS011;54819;48.030;14.710;2022-11-14T07:11:56;61.10;;;20.40;;
68025;SDS011;54819;48.030;14.710;2022-11-14T07:14:41;54.10;;;19.70;;
68025;SDS011;54819;48.030;14.710;2022-11-14T07:17:26;57.60;;;18.50;;
68025;SDS011;54819;48.030;14.710;2022-11-14T07:20:16;54.20;;;19.80;;
68025;SDS011;54819;48.030;14.710;2022-11-14T07:23:04;61.60;;;19.30;;
68025;SDS011;54819;48.030;14.710;2022-11-14T07:25:50;65.60;;;21.00;;
68025;SDS011;54819;48.030;14.710;2022-11-14T07:28:39;64.90;;;21.10;;
68025;SDS011;54819;48.030;14.710;2022-11-14T07:31:25;60.50;;;21.00;;
68025;SDS011;54819;48.030;14.710;2022-11-14T07:34:11;62.30;;;21.40;;
68025;SDS011;54819;48.030;14.710;2022-11-14T07:36:56;53.80;;;17.50;;
68025;SDS011;54819;48.030;14.710;2022-11-14T07:39:42;54.10;;;18.20;;
68025;SDS011;54819;48.030;14.710;2022-11-14T07:42:28;53.90;;;17.70;;
68025;SDS011;54819;48.030;14.710;2022-11-14T07:45:14;55.20;;;18.70;;
68025;SDS011;54819;48.030;14.710;2022-11-14T07:48:01;47.70;;;17.00;;
68025;SDS011;54819;48.030;14.710;2022-11-14T07:50:47;43.50;;;16.40;;
68025;SDS011;54819;48.030;14.710;2022-11-14T07:53:32;54.90;;;18.60;;
68025;SDS011;54819;48.030;14.710;2022-11-14T07:56:18;44.80;;;15.40;;
68025;SDS011;54819;48.030;14.710;2022-11-14T07:59:06;59.30;;;19.90;;
68025;SDS011;54819;48.030;14.710;2022-11-14T08:01:51;64.40;;;21.50;;
68025;SDS011;54819;48.030;14.710;2022-11-14T08:04:37;59.20;;;17.80;;
68025;SDS011;54819;48.030;14.710;2022-11-14T08:07:22;61.90;;;19.80;;
68025;SDS011;54819;48.030;14.710;2022-11-14T08:10:09;47.30;;;18.00;;
68025;SDS011;54819;48.030;14.710;2022-11-14T08:12:57;55.40;;;20.40;;
68025;SDS011;54819;48.030;14.710;2022-11-14T08:16:06;50.00;;;16.30;;
68025;SDS011;54819;48.030;14.710;2022-11-14T08:18:57;50.80;;;17.90;;
68025;SDS011;54819;48.030;14.710;2022-11-14T08:21:43;57.20;;;18.60;;
68025;SDS011;54819;48.030;14.710;2022-11-14T08:24:29;50.60;;;17.70;;
68025;SDS011;54819;48.030;14.710;2022-11-14T08:27:15;50.50;;;18.40;;
68025;SDS011;54819;48.030;14.710;2022-11-14T08:30:00;51.60;;;17.00;;
68025;SDS011;54819;48.030;14.710;2022-11-14T08:32:45;54.20;;;17.50;;
68025;SDS011;54819;48.030;14.710;2022-11-14T08:35:32;56.10;;;19.60;;
68025;SDS011;54819;48.030;14.710;2022-11-14T08:38:18;52.70;;;18.80;;
68025;SDS011;54819;48.030;14.710;2022-11-14T08:41:03;54.90;;;17.60;;
68025;SDS011;54819;48.030;14.710;2022-11-14T08:43:49;56.90;;;20.20;;
68025;SDS011;54819;48.030;14.710;2022-11-14T08:46:35;58.60;;;19.30;;
68025;SDS011;54819;48.030;14.710;2022-11-14T08:49:20;64.50;;;20.40;;
68025;SDS011;54819;48.030;14.710;2022-11-14T08:52:06;65.20;;;19.80;;
68025;SDS011;54819;48.030;14.710;2022-11-14T08:54:56;65.90;;;20.80;;
68025;SDS011;54819;48.030;14.710;2022-11-14T08:57:42;69.30;;;21.80;;
68025;SDS011;54819;48.030;14.710;2022-11-14T09:00:33;74.80;;;22.20;;
68025;SDS011;54819;48.030;14.710;2022-11-14T09:03:19;66.30;;;20.60;;
68025;SDS011;54819;48.030;14.710;2022-11-14T09:06:05;69.50;;;21.70;;
68025;SDS011;54819;48.030;14.710;2022-11-14T09:08:50;67.80;;;21.90;;
68025;SDS011;54819;48.030;14.710;2022-11-14T09:11:36;62.40;;;19.40;;
68025;SDS011;54819;48.030;14.710;2022-11-14T09:14:21;71.70;;;20.20;;
68025;SDS011;54819;48.030;14.710;2022-11-14T09:17:07;74.70;;;22.20;;
68025;SDS011;54819;48.030;14.710;2022-11-14T09:19:53;71.10;;;22.70;;
68025;SDS011;54819;48.030;14.710;2022-11-14T09:22:39;77.50;;;23.80;;
68025;SDS011;54819;48.030;14.710;2022-11-14T09:25:25;66.60;;;19.60;;
68025;SDS011;54819;48.030;14.710;2022-11-14T09:28:11;86.50;;;25.30;;
68025;SDS011;54819;48.030;14.710;2022-11-14T09:31:07;89.40;;;25.00;;
68025;SDS011;54819;48.030;14.710;2022-11-14T09:33:54;89.00;;;26.20;;
68025;SDS011;54819;48.030;14.710;2022-11-14T09:36:40;69.60;;;20.50;;
68025;SDS011;54819;48.030;14.710;2022-11-14T09:39:25;83.50;;;24.30;;
68025;SDS011;54819;48.030;14.710;2022-11-14T09:42:15;78.10;;;25.30;;
68025;SDS011;54819;48.030;14.710;2022-11-14T09:45:23;77.00;;;23.80;;
68025;SDS011;54819;48.030;14.710;2022-11-14T09:48:13;79.00;;;24.70;;
68025;SDS011;54819;48.030;14.710;2022-11-14T09:51:08;90.10;;;24.40;;
68025;SDS011;54819;48.030;14.710;2022-11-14T09:54:10;90.30;;;27.10;;
68025;SDS011;54819;48.030;14.710;2022-11-14T09:57:12;78.40;;;25.10;;
68025;SDS011;54819;48.030;14.710;2022-11-14T10:00:00;80.90;;;26.00;;
68025;SDS011;54819;48.030;14.710;2022-11-14T10:06:29;79.80;;;23.50;;
68025;SDS011;54819;48.030;14.710;2022-11-14T10:12:44;83.20;;;26.00;;
68025;SDS011;54819;48.030;14.710;2022-11-14T10:15:45;80.90;;;23.10;;
68025;SDS011;54819;48.030;14.710;2022-11-14T10:19:34;88.70;;;26.60;;
68025;SDS011;54819;48.030;14.710;2022-11-14T10:25:23;84.10;;;27.50;;
68025;SDS011;54819;48.030;14.710;2022-11-14T10:31:49;15.60;;;5.40;;
68025;SDS011;54819;48.030;14.710;2022-11-14T10:35:10;11.60;;;3.90;;
68025;SDS011;54819;48.030;14.710;2022-11-14T10:40:58;11.10;;;4.00;;
68025;SDS011;54819;48.030;14.710;2022-11-14T10:43:47;7.90;;;3.40;;
68025;SDS011;54819;48.030;14.710;2022-11-14T10:46:37;8.80;;;3.30;;
68025;SDS011;54819;48.030;14.710;2022-11-14T10:49:27;7.40;;;3.40;;
68025;SDS011;54819;48.030;14.710;2022-11-14T10:52:19;9.80;;;3.40;;
68025;SDS011;54819;48.030;14.710;2022-11-14T10:55:20;5.40;;;2.80;;
68025;SDS011;54819;48.030;14.710;2022-11-14T10:58:26;6.00;;;2.40;;
68025;SDS011;54819;48.030;14.710;2022-11-14T11:01:32;5.80;;;2.30;;
68025;SDS011;54819;48.030;14.710;2022-11-14T11:04:42;7.30;;;2.10;;
68025;SDS011;54819;48.030;14.710;2022-11-14T11:07:29;6.20;;;2.50;;
68025;SDS011;54819;48.030;14.710;2022-11-14T11:10:43;6.20;;;2.50;;
68025;SDS011;54819;48.030;14.710;2022-11-14T11:13:54;6.00;;;2.70;;
68025;SDS011;54819;48.030;14.710;2022-11-14T11:16:41;7.30;;;3.00;;
68025;SDS011;54819;48.030;14.710;2022-11-14T11:19:27;5.60;;;2.40;;
68025;SDS011;54819;48.030;14.710;2022-11-14T11:22:37;8.70;;;2.90;;
68025;SDS011;54819;48.030;14.710;2022-11-14T11:25:26;6.80;;;2.60;;
68025;SDS011;54819;48.030;14.710;2022-11-14T11:28:18;7.00;;;2.90;;
68025;SDS011;54819;48.030;14.710;2022-11-14T11:31:07;6.40;;;2.90;;
68025;SDS011;54819;48.030;14.710;2022-11-14T11:34:02;7.20;;;2.70;;
68025;SDS011;54819;48.030;14.710;2022-11-14T11:36:52;6.70;;;2.70;;
68025;SDS011;54819;48.030;14.710;2022-11-14T11:40:02;6.40;;;2.40;;
68025;SDS011;54819;48.030;14.710;2022-11-14T11:43:01;6.60;;;3.30;;
68025;SDS011;54819;48.030;14.710;2022-11-14T11:46:20;7.60;;;2.40;;
68025;SDS011;54819;48.030;14.710;2022-11-14T11:55:20;7.80;;;3.10;;
68025;SDS011;54819;48.030;14.710;2022-11-14T12:01:09;7.20;;;2.90;;
68025;SDS011;54819;48.030;14.710;2022-11-14T12:03:56;7.20;;;3.00;;
68025;SDS011;54819;48.030;14.710;2022-11-14T12:07:15;7.40;;;3.30;;
68025;SDS011;54819;48.030;14.710;2022-11-14T12:10:29;6.90;;;2.80;;
68025;SDS011;54819;48.030;14.710;2022-11-14T12:23:51;7.40;;;3.00;;
68025;SDS011;54819;48.030;14.710;2022-11-14T12:30:20;6.90;;;2.80;;
68025;SDS011;54819;48.030;14.710;2022-11-14T12:33:59;8.90;;;4.10;;
68025;SDS011;54819;48.030;14.710;2022-11-14T12:36:39;7.10;;;2.50;;
68025;SDS011;54819;48.030;14.710;2022-11-14T12:39:29;7.80;;;3.30;;
68025;SDS011;54819;48.030;14.710;2022-11-14T12:42:19;8.00;;;3.30;;
68025;SDS011;54819;48.030;14.710;2022-11-14T12:54:46;7.80;;;3.50;;
68025;SDS011;54819;48.030;14.710;2022-11-14T13:10:38;9.10;;;3.50;;
68025;SDS011;54819;48.030;14.710;2022-11-14T13:13:25;9.20;;;3.30;;
68025;SDS011;54819;48.030;14.710;2022-11-14T13:16:30;8.30;;;3.20;;
68025;SDS011;54819;48.030;14.710;2022-11-14T13:19:44;10.00;;;3.70;;
68025;SDS011;54819;48.030;14.710;2022-11-14T13:22:49;8.90;;;3.40;;
68025;SDS011;54819;48.030;14.710;2022-11-14T13:25:34;11.80;;;3.10;;
68025;SDS011;54819;48.030;14.710;2022-11-14T13:28:46;8.60;;;3.20;;
68025;SDS011;54819;48.030;14.710;2022-11-14T13:34:37;9.20;;;3.40;;
68025;SDS011;54819;48.030;14.710;2022-11-14T13:41:25;8.50;;;3.70;;
68025;SDS011;54819;48.030;14.710;2022-11-14T13:44:36;11.00;;;4.40;;
68025;SDS011;54819;48.030;14.710;2022-11-14T13:51:20;10.00;;;3.80;;
68025;SDS011;54819;48.030;14.710;2022-11-14T13:54:29;8.90;;;3.90;;
68025;SDS011;54819;48.030;14.710;2022-11-14T14:04:28;10.20;;;4.10;;
68025;SDS011;54819;48.030;14.710;2022-11-14T14:07:51;9.30;;;3.30;;
68025;SDS011;54819;48.030;14.710;2022-11-14T14:16:44;9.10;;;3.30;;
68025;SDS011;54819;48.030;14.710;2022-11-14T14:22:57;9.50;;;3.90;;
68025;SDS011;54819;48.030;14.710;2022-11-14T14:26:05;9.60;;;3.50;;
68025;SDS011;54819;48.030;14.710;2022-11-14T14:29:38;13.90;;;4.50;;
68025;SDS011;54819;48.030;14.710;2022-11-14T14:33:04;12.40;;;3.80;;
68025;SDS011;54819;48.030;14.710;2022-11-14T14:35:56;8.00;;;3.50;;
68025;SDS011;54819;48.030;14.710;2022-11-14T14:38:41;23.90;;;4.30;;
68025;SDS011;54819;48.030;14.710;2022-11-14T14:41:30;9.90;;;4.20;;
68025;SDS011;54819;48.030;14.710;2022-11-14T14:44:30;9.20;;;3.30;;
68025;SDS011;54819;48.030;14.710;2022-11-14T14:47:42;10.50;;;4.10;;
68025;SDS011;54819;48.030;14.710;2022-11-14T14:50:38;8.70;;;3.80;;
68025;SDS011;54819;48.030;14.710;2022-11-14T14:53:28;11.00;;;4.00;;
68025;SDS011;54819;48.030;14.710;2022-11-14T14:56:18;11.40;;;4.90;;
68025;SDS011;54819;48.030;14.710;2022-11-14T14:59:21;11.20;;;4.10;;
68025;SDS011;54819;48.030;14.710;2022-11-14T15:02:17;11.90;;;4.10;;
68025;SDS011;54819;48.030;14.710;2022-11-14T15:05:06;12.80;;;4.00;;
68025;SDS011;54819;48.030;14.710;2022-11-14T15:07:55;10.60;;;3.70;;
68025;SDS011;54819;48.030;14.710;2022-11-14T15:10:44;7.70;;;3.20;;
68025;SDS011;54819;48.030;14.710;2022-11-14T15:13:30;7.30;;;3.20;;
68025;SDS011;54819;48.030;14.710;2022-11-14T15:19:05;7.70;;;3.50;;
68025;SDS011;54819;48.030;14.710;2022-11-14T15:22:17;10.60;;;4.10;;
68025;SDS011;54819;48.030;14.710;2022-11-14T15:27:56;24.20;;;4.00;;
68025;SDS011;54819;48.030;14.710;2022-11-14T15:31:02;13.90;;;4.10;;
68025;SDS011;54819;48.030;14.710;2022-11-14T15:37:20;9.20;;;3.90;;
68025;SDS011;54819;48.030;14.710;2022-11-14T15:40:18;10.10;;;3.90;;
68025;SDS011;54819;48.030;14.710;2022-11-14T15:46:44;10.50;;;4.00;;
68025;SDS011;54819;48.030;14.710;2022-11-14T15:49:31;7.60;;;3.20;;
68025;SDS011;54819;48.030;14.710;2022-11-14T15:52:37;6.60;;;3.10;;
68025;SDS011;54819;48.030;14.710;2022-11-14T15:55:25;8.50;;;3.20;;
68025;SDS011;54819;48.030;14.710;2022-11-14T15:58:11;12.70;;;3.50;;
68025;SDS011;54819;48.030;14.710;2022-11-14T16:01:17;9.50;;;3.20;;
68025;SDS011;54819;48.030;14.710;2022-11-14T16:04:19;9.40;;;3.30;;
68025;SDS011;54819;48.030;14.710;2022-11-14T16:07:12;8.10;;;3.60;;
68025;SDS011;54819;48.030;14.710;2022-11-14T16:09:59;8.80;;;4.00;;
68025;SDS011;54819;48.030;14.710;2022-11-14T16:12:44;6.30;;;3.00;;
68025;SDS011;54819;48.030;14.710;2022-11-14T16:15:36;7.10;;;3.70;;
68025;SDS011;54819;48.030;14.710;2022-11-14T16:18:22;13.90;;;4.00;;
68025;SDS011;54819;48.030;14.710;2022-11-14T16:21:13;8.10;;;3.80;;
68025;SDS011;54819;48.030;14.710;2022-11-14T16:24:03;7.80;;;3.50;;
68025;SDS011;54819;48.030;14.710;2022-11-14T16:26:49;9.30;;;3.80;;
68025;SDS011;54819;48.030;14.710;2022-11-14T16:29:34;8.60;;;3.50;;
68025;SDS011;54819;48.030;14.710;2022-11-14T16:32:20;9.60;;;4.10;;
68025;SDS011;54819;48.030;14.710;2022-11-14T16:35:16;9.80;;;3.80;;
68025;SDS011;54819;48.030;14.710;2022-11-14T16:38:02;9.60;;;3.60;;
68025;SDS011;54819;48.030;14.710;2022-11-14T16:40:48;10.60;;;4.60;;
68025;SDS011;54819;48.030;14.710;2022-11-14T16:43:34;10.70;;;4.00;;
68025;SDS011;54819;48.030;14.710;2022-11-14T16:46:20;11.30;;;3.80;;
68025;SDS011;54819;48.030;14.710;2022-11-14T16:49:06;9.30;;;3.80;;
68025;SDS011;54819;48.030;14.710;2022-11-14T16:51:51;10.90;;;4.00;;
68025;SDS011;54819;48.030;14.710;2022-11-14T16:54:39;10.60;;;3.90;;
68025;SDS011;54819;48.030;14.710;2022-11-14T16:57:25;13.60;;;3.60;;
68025;SDS011;54819;48.030;14.710;2022-11-14T17:00:12;22.00;;;6.10;;
68025;SDS011;54819;48.030;14.710;2022-11-14T17:02:57;14.00;;;4.00;;
68025;SDS011;54819;48.030;14.710;2022-11-14T17:05:44;7.30;;;3.30;;
68025;SDS011;54819;48.030;14.710;2022-11-14T17:08:33;13.40;;;5.00;;
68025;SDS011;54819;48.030;14.710;2022-11-14T17:11:18;6.70;;;3.50;;
68025;SDS011;54819;48.030;14.710;2022-11-14T17:14:05;10.60;;;5.30;;
68025;SDS011;54819;48.030;14.710;2022-11-14T17:16:52;8.80;;;4.00;;
68025;SDS011;54819;48.030;14.710;2022-11-14T17:19:37;8.80;;;3.90;;
68025;SDS011;54819;48.030;14.710;2022-11-14T17:22:30;15.20;;;4.50;;
68025;SDS011;54819;48.030;14.710;2022-11-14T17:25:16;10.20;;;4.20;;
68025;SDS011;54819;48.030;14.710;2022-11-14T17:28:02;12.40;;;4.40;;
68025;SDS011;54819;48.030;14.710;2022-11-14T17:30:48;13.30;;;5.10;;
68025;SDS011;54819;48.030;14.710;2022-11-14T17:33:35;10.60;;;4.60;;
68025;SDS011;54819;48.030;14.710;2022-11-14T17:36:24;19.70;;;6.00;;
68025;SDS011;54819;48.030;14.710;2022-11-14T17:39:11;14.40;;;6.60;;
68025;SDS011;54819;48.030;14.710;2022-11-14T17:41:58;24.90;;;8.60;;
68025;SDS011;54819;48.030;14.710;2022-11-14T17:44:45;25.90;;;9.80;;
68025;SDS011;54819;48.030;14.710;2022-11-14T17:47:31;28.70;;;9.50;;
68025;SDS011;54819;48.030;14.710;2022-11-14T17:50:18;24.60;;;9.70;;
68025;SDS011;54819;48.030;14.710;2022-11-14T17:53:04;23.10;;;9.50;;
68025;SDS011;54819;48.030;14.710;2022-11-14T17:55:55;24.90;;;9.70;;
68025;SDS011;54819;48.030;14.710;2022-11-14T17:58:41;32.10;;;11.40;;
68025;SDS011;54819;48.030;14.710;2022-11-14T18:01:28;32.20;;;11.70;;
68025;SDS011;54819;48.030;14.710;2022-11-14T18:04:16;30.40;;;12.80;;
68025;SDS011;54819;48.030;14.710;2022-11-14T18:07:02;31.60;;;12.00;;
68025;SDS011;54819;48.030;14.710;2022-11-14T18:09:48;31.10;;;11.90;;
68025;SDS011;54819;48.030;14.710;2022-11-14T18:12:34;31.10;;;11.70;;
68025;SDS011;54819;48.030;14.710;2022-11-14T18:15:20;30.70;;;11.80;;
68025;SDS011;54819;48.030;14.710;2022-11-14T18:18:12;30.80;;;11.60;;